Aviation Digital Data Service (ADDS)

Output produced by TAFs form (1513 UTC 23 October 2017)
found at http://www.aviationweather.gov/adds/tafs/
 
KAGS 231453Z 16015G20KT 9SM BKN009 OVC017 26/22 A2994 RMK AO2 SLP138 60000 T02560222 58020
KAGS 231141Z 2312/2412 15007KT P6SM VCSH BKN006 OVC012 
     FM231600 15010G17KT 6SM -SHRA BR SCT006 OVC015 
     TEMPO 2319/2323 3SM SHRA 
     FM240200 26003KT P6SM FEW250